Time;durP1;ratioP1;P1;durP2;ratioP2;P2;SDS_P1;SDS_P2;PMS_P1;PMS_P2;Temp;Humidity;BMP_temperature;BMP_pressure;BME280_temperature;BME280_humidity;BME280_pressure;Samples;Min_cycle;Max_cycle;Signal;HPM_P1;HPM_P2
2023/04/06 00:02:14;;;;;;;14.63;12.50;;;5.00;95.90;;;;;;5012946;28;20069;-54
2023/04/06 00:05:00;;;;;;;15.50;12.27;;;5.00;96.20;;;;;;5014552;28;20038;-53
2023/04/06 00:07:46;;;;;;;17.60;13.25;;;5.00;96.30;;;;;;5012101;28;20026;-54
2023/04/06 00:10:32;;;;;;;17.50;13.32;;;4.90;96.50;;;;;;5013647;28;20045;-56
2023/04/06 00:13:18;;;;;;;14.18;12.68;;;4.80;96.90;;;;;;5011549;28;20077;-54
2023/04/06 00:16:05;;;;;;;18.77;14.27;;;4.70;97.50;;;;;;5011938;28;20502;-57
2023/04/06 00:18:51;;;;;;;15.40;13.60;;;4.60;98.00;;;;;;5013177;28;20379;-56
2023/04/06 00:21:37;;;;;;;17.05;13.75;;;4.60;98.30;;;;;;5011401;28;20090;-53
2023/04/06 00:24:23;;;;;;;15.75;12.82;;;4.50;98.50;;;;;;5011908;28;20438;-51
2023/04/06 00:27:09;;;;;;;18.80;13.68;;;4.50;98.50;;;;;;5013988;28;20064;-56
2023/04/06 00:29:56;;;;;;;17.85;13.88;;;4.50;98.50;;;;;;5013505;28;20065;-54
2023/04/06 00:32:41;;;;;;;17.23;14.55;;;4.50;98.70;;;;;;5011647;28;20168;-55
2023/04/06 00:35:27;;;;;;;18.02;13.95;;;4.40;98.80;;;;;;4995204;28;20446;-52
2023/04/06 00:38:14;;;;;;;18.48;14.15;;;4.50;98.70;;;;;;5011379;28;20041;-54
2023/04/06 00:41:00;;;;;;;18.15;14.13;;;4.60;98.60;;;;;;5013160;28;20036;-54
2023/04/06 00:43:47;;;;;;;17.58;13.75;;;4.60;97.90;;;;;;5011985;28;20030;-54
2023/04/06 00:46:33;;;;;;;18.73;15.13;;;4.60;97.50;;;;;;5012043;28;20037;-54
2023/04/06 00:49:19;;;;;;;15.35;13.07;;;4.50;97.80;;;;;;5013233;28;20022;-54
2023/04/06 00:52:05;;;;;;;16.42;13.07;;;4.50;98.00;;;;;;5012271;28;20077;-53
2023/04/06 00:54:51;;;;;;;19.35;13.77;;;4.50;98.40;;;;;;4998530;28;20026;-52
2023/04/06 00:57:37;;;;;;;16.60;13.27;;;4.50;98.90;;;;;;5010187;28;20022;-53
2023/04/06 01:00:24;;;;;;;15.98;13.30;;;4.60;99.20;;;;;;5013492;28;20034;-55
2023/04/06 01:03:10;;;;;;;14.63;13.05;;;4.50;99.30;;;;;;5011729;28;20451;-54
2023/04/06 01:05:58;;;;;;;17.88;13.93;;;4.50;99.40;;;;;;5011859;28;20033;-54
2023/04/06 01:08:44;;;;;;;17.10;13.43;;;4.50;99.60;;;;;;5010223;28;20034;-55
2023/04/06 01:11:31;;;;;;;18.33;13.50;;;4.50;99.80;;;;;;5012300;28;20105;-53
2023/04/06 01:14:17;;;;;;;16.27;13.02;;;4.50;99.90;;;;;;5013705;28;20584;-53
2023/04/06 01:17:03;;;;;;;14.73;13.23;;;4.50;99.90;;;;;;5013108;28;20026;-53
2023/04/06 01:19:51;;;;;;;17.95;13.25;;;4.40;99.90;;;;;;5009320;28;20490;-54
2023/04/06 01:22:36;;;;;;;18.80;14.00;;;4.40;99.90;;;;;;5012988;28;20046;-50
2023/04/06 01:25:22;;;;;;;18.13;13.43;;;4.40;99.90;;;;;;5012998;28;20053;-54
2023/04/06 01:28:08;;;;;;;18.13;13.70;;;4.40;99.90;;;;;;5009916;28;20065;-53
2023/04/06 01:30:54;;;;;;;19.83;14.55;;;4.30;99.90;;;;;;5011797;28;20034;-54
2023/04/06 01:33:40;;;;;;;17.63;14.30;;;4.20;99.90;;;;;;5010134;28;20395;-56
2023/04/06 01:36:26;;;;;;;18.42;14.38;;;4.00;99.90;;;;;;5010366;28;20033;-48
2023/04/06 01:39:12;;;;;;;16.85;14.75;;;4.00;99.90;;;;;;4997118;28;20026;-53
2023/04/06 01:41:58;;;;;;;18.17;13.93;;;4.00;99.90;;;;;;5008716;28;20029;-54
2023/04/06 01:44:44;;;;;;;16.60;13.75;;;4.10;99.90;;;;;;5010742;28;20461;-53
2023/04/06 01:47:30;;;;;;;18.83;13.73;;;4.10;99.90;;;;;;5010975;28;20041;-47
2023/04/06 01:50:16;;;;;;;18.48;14.55;;;4.10;99.90;;;;;;5011149;28;20498;-49
2023/04/06 01:53:02;;;;;;;18.02;13.98;;;4.10;99.90;;;;;;5010414;28;20027;-48
2023/04/06 01:55:48;;;;;;;18.35;13.88;;;4.10;99.90;;;;;;4993068;28;20018;-54
2023/04/06 01:58:35;;;;;;;19.17;13.52;;;4.10;99.90;;;;;;5011086;28;20034;-54
2023/04/06 02:01:21;;;;;;;18.23;13.88;;;4.00;99.90;;;;;;4995434;28;20173;-49
2023/04/06 02:04:07;;;;;;;21.45;14.80;;;4.00;99.90;;;;;;5010583;28;20403;-53
2023/04/06 02:06:53;;;;;;;20.27;14.82;;;3.90;99.90;;;;;;5011363;28;20028;-50
2023/04/06 02:09:39;;;;;;;19.52;14.55;;;3.80;99.90;;;;;;5011807;28;20026;-51
2023/04/06 02:12:25;;;;;;;18.38;15.55;;;3.80;99.90;;;;;;5010350;28;20057;-51
2023/04/06 02:15:13;;;;;;;20.23;14.32;;;3.70;99.90;;;;;;5011060;28;20049;-48
2023/04/06 02:18:00;;;;;;;20.20;15.55;;;3.70;99.90;;;;;;5012181;28;20379;-50
2023/04/06 02:20:46;;;;;;;20.77;14.88;;;3.70;99.90;;;;;;4996753;28;20033;-50
2023/04/06 02:23:32;;;;;;;19.33;15.00;;;3.70;99.90;;;;;;5010259;28;20029;-52
2023/04/06 02:26:18;;;;;;;19.23;14.40;;;3.70;99.90;;;;;;5011340;28;20521;-53
2023/04/06 02:29:04;;;;;;;18.85;14.48;;;3.60;99.90;;;;;;5008775;28;20037;-54
2023/04/06 02:31:51;;;;;;;21.55;14.75;;;3.70;99.90;;;;;;5011112;28;20116;-51
2023/04/06 02:34:37;;;;;;;24.25;15.80;;;3.70;99.90;;;;;;5010225;28;20037;-52
2023/04/06 02:37:23;;;;;;;24.42;16.05;;;3.60;99.90;;;;;;5009240;28;20026;-51
2023/04/06 02:40:10;;;;;;;18.80;15.85;;;3.50;99.90;;;;;;5010257;28;20057;-49
2023/04/06 02:42:56;;;;;;;20.48;15.65;;;3.40;99.90;;;;;;5010877;28;20018;-52
2023/04/06 02:45:42;;;;;;;20.80;15.52;;;3.60;99.90;;;;;;5009502;28;20026;-52
2023/04/06 02:48:28;;;;;;;23.95;15.80;;;3.60;99.90;;;;;;5009526;28;20040;-51
2023/04/06 02:51:14;;;;;;;21.33;15.38;;;3.50;99.90;;;;;;5010373;28;20029;-53
2023/04/06 02:54:00;;;;;;;21.25;15.70;;;3.50;99.90;;;;;;5010584;28;20022;-54
2023/04/06 02:56:46;;;;;;;19.92;16.13;;;3.40;99.90;;;;;;5008761;28;20106;-51
2023/04/06 02:59:31;;;;;;;23.50;15.50;;;3.20;99.90;;;;;;5011112;28;20026;-48
2023/04/06 03:02:17;;;;;;;18.80;16.27;;;3.10;99.90;;;;;;5010383;28;20017;-54
2023/04/06 03:05:04;;;;;;;22.08;16.67;;;3.20;99.90;;;;;;5009239;28;20037;-51
2023/04/06 03:07:50;;;;;;;20.13;15.52;;;3.20;99.90;;;;;;5008165;28;20057;-52
2023/04/06 03:10:36;;;;;;;20.58;15.43;;;3.20;99.90;;;;;;5010341;28;20025;-49
2023/04/06 03:13:22;;;;;;;19.05;15.90;;;3.20;99.90;;;;;;5011239;28;20494;-50
2023/04/06 03:16:08;;;;;;;19.88;14.88;;;3.10;99.90;;;;;;5008563;28;20045;-50
2023/04/06 03:18:54;;;;;;;18.85;14.80;;;3.00;99.90;;;;;;5009983;28;20022;-49
2023/04/06 03:21:41;;;;;;;20.10;15.40;;;3.00;99.90;;;;;;5007432;28;20030;-50
2023/04/06 03:24:27;;;;;;;21.45;15.55;;;3.10;99.90;;;;;;5010431;28;20049;-48
2023/04/06 03:27:13;;;;;;;18.17;14.77;;;3.10;99.90;;;;;;5010107;28;20034;-51
2023/04/06 03:29:59;;;;;;;16.90;14.32;;;3.00;99.90;;;;;;5009634;28;20038;-50
2023/04/06 03:32:45;;;;;;;17.60;14.57;;;3.00;99.90;;;;;;5012001;28;20056;-49
2023/04/06 03:35:31;;;;;;;17.08;14.07;;;3.00;99.90;;;;;;4994704;28;20049;-53
2023/04/06 03:38:17;;;;;;;20.20;14.02;;;3.10;99.90;;;;;;5009570;28;20026;-55
2023/04/06 03:41:03;;;;;;;15.60;13.35;;;3.10;99.90;;;;;;5011210;28;20026;-51
2023/04/06 03:43:49;;;;;;;20.65;14.40;;;3.20;99.90;;;;;;5008406;28;20026;-49
2023/04/06 03:46:35;;;;;;;16.02;13.23;;;3.20;99.90;;;;;;5009017;28;20034;-49
2023/04/06 03:49:21;;;;;;;20.17;15.07;;;3.20;99.90;;;;;;4994863;28;20490;-50
2023/04/06 03:52:07;;;;;;;20.30;14.88;;;3.30;99.90;;;;;;5010329;28;20026;-54
2023/04/06 03:54:53;;;;;;;23.40;16.02;;;3.30;99.90;;;;;;5008412;28;20507;-51
2023/04/06 03:57:39;;;;;;;45.33;28.48;;;3.20;99.90;;;;;;5009507;28;20498;-50
2023/04/06 04:00:25;;;;;;;44.17;27.70;;;3.20;99.90;;;;;;5008257;28;20113;-50
2023/04/06 04:03:11;;;;;;;25.00;17.90;;;3.20;99.90;;;;;;5008339;28;20057;-52
2023/04/06 04:05:57;;;;;;;21.67;14.48;;;3.20;99.90;;;;;;5010901;28;20121;-51
2023/04/06 04:08:43;;;;;;;21.75;15.25;;;3.20;99.90;;;;;;5010030;28;20045;-52
2023/04/06 04:11:29;;;;;;;17.58;14.27;;;3.20;99.90;;;;;;5005587;28;20022;-54
2023/04/06 04:14:15;;;;;;;20.15;13.90;;;3.20;99.90;;;;;;5012907;28;20030;-52
2023/04/06 04:17:01;;;;;;;19.60;14.63;;;3.10;99.90;;;;;;5009463;28;20042;-52
2023/04/06 04:19:47;;;;;;;17.67;14.18;;;3.10;99.90;;;;;;5013464;28;20470;-48
2023/04/06 04:22:33;;;;;;;19.77;14.65;;;3.10;99.90;;;;;;5011940;28;20037;-51
2023/04/06 04:25:19;;;;;;;20.05;14.98;;;3.10;99.90;;;;;;5012680;28;20096;-51
2023/04/06 04:28:05;;;;;;;22.13;15.35;;;3.10;99.90;;;;;;5013389;28;20018;-52
2023/04/06 04:30:50;;;;;;;19.55;15.43;;;3.10;99.90;;;;;;5011494;28;20030;-54
2023/04/06 04:33:36;;;;;;;20.77;14.77;;;3.00;99.90;;;;;;5012766;28;20029;-52
2023/04/06 04:36:24;;;;;;;34.75;15.13;;;3.00;99.90;;;;;;5012932;28;20037;-53
2023/04/06 04:39:10;;;;;;;28.48;15.43;;;3.00;99.90;;;;;;5012158;28;20038;-56
2023/04/06 04:41:56;;;;;;;22.23;15.80;;;3.00;99.90;;;;;;5012575;28;20037;-52
2023/04/06 04:44:42;;;;;;;17.73;14.90;;;2.90;99.90;;;;;;5012544;28;20029;-52
2023/04/06 04:47:28;;;;;;;23.15;15.00;;;2.90;99.90;;;;;;5012741;28;20032;-56
2023/04/06 04:50:14;;;;;;;21.73;15.00;;;2.90;99.90;;;;;;4996887;28;20033;-57
2023/04/06 04:53:00;;;;;;;19.65;15.32;;;2.90;99.90;;;;;;5013111;28;20018;-55
2023/04/06 04:55:46;;;;;;;20.63;14.82;;;2.90;99.90;;;;;;5013365;28;20022;-55
2023/04/06 04:58:32;;;;;;;20.27;14.07;;;2.90;99.90;;;;;;5011941;28;20030;-52
2023/04/06 05:01:17;;;;;;;22.23;16.75;;;2.90;99.90;;;;;;5013010;28;20059;-54
2023/04/06 05:04:04;;;;;;;34.20;24.15;;;3.00;99.90;;;;;;5012736;28;20030;-56
2023/04/06 05:06:50;;;;;;;27.08;20.00;;;3.20;99.90;;;;;;4998065;28;20026;-56
2023/04/06 05:09:36;;;;;;;20.92;16.50;;;3.20;99.90;;;;;;5011477;28;20057;-55
2023/04/06 05:12:22;;;;;;;21.23;15.77;;;3.30;99.90;;;;;;4998335;28;20037;-58
2023/04/06 05:15:09;;;;;;;18.95;15.15;;;3.30;99.90;;;;;;5010807;28;20554;-56
2023/04/06 05:17:55;;;;;;;21.27;15.52;;;3.30;99.90;;;;;;5010930;28;20407;-52
2023/04/06 05:20:42;;;;;;;58.47;32.92;;;3.30;99.90;;;;;;5012833;28;20246;-57
2023/04/06 05:23:28;;;;;;;28.23;18.40;;;3.20;99.90;;;;;;5013790;28;20108;-56
2023/04/06 05:26:14;;;;;;;30.00;20.42;;;3.20;99.90;;;;;;5010656;28;20041;-53
2023/04/06 05:29:00;;;;;;;65.97;25.00;;;3.20;99.90;;;;;;5011257;28;20105;-56
2023/04/06 05:31:47;;;;;;;32.65;21.45;;;3.30;99.90;;;;;;5012293;28;20033;-51
2023/04/06 05:34:33;;;;;;;22.35;16.27;;;3.40;99.90;;;;;;5010906;28;20037;-49
2023/04/06 05:37:19;;;;;;;22.25;16.30;;;3.50;99.90;;;;;;5011481;28;20414;-52
2023/04/06 05:40:06;;;;;;;19.33;15.63;;;3.50;99.90;;;;;;5013338;28;20503;-49
2023/04/06 05:42:51;;;;;;;21.67;16.25;;;3.50;99.90;;;;;;5010542;28;20033;-52
2023/04/06 05:45:37;;;;;;;21.83;15.77;;;3.50;99.90;;;;;;5011077;28;20033;-53
2023/04/06 05:48:23;;;;;;;20.80;16.17;;;3.60;99.90;;;;;;5011415;28;20503;-50
2023/04/06 05:51:09;;;;;;;20.92;16.35;;;3.60;99.90;;;;;;5010464;28;20025;-48
2023/04/06 05:53:55;;;;;;;19.27;16.02;;;3.60;99.90;;;;;;5010403;28;20018;-53
2023/04/06 05:56:41;;;;;;;64.15;36.75;;;3.70;99.90;;;;;;5011651;28;20601;-49
2023/04/06 05:59:28;;;;;;;67.68;38.15;;;3.70;99.90;;;;;;5010005;28;20401;-50
2023/04/06 06:02:14;;;;;;;43.13;28.40;;;3.60;99.90;;;;;;5010828;28;20030;-48
2023/04/06 06:05:00;;;;;;;43.65;27.77;;;3.70;99.90;;;;;;5011574;28;20533;-50
2023/04/06 06:07:46;;;;;;;21.92;16.60;;;3.80;99.90;;;;;;5010989;28;20073;-50
2023/04/06 06:10:31;;;;;;;21.20;16.48;;;3.90;99.90;;;;;;4994907;28;20030;-52
2023/04/06 06:13:17;;;;;;;20.90;15.57;;;3.90;99.90;;;;;;5011201;28;20032;-54
2023/04/06 06:16:05;;;;;;;23.70;16.75;;;3.90;99.90;;;;;;4997311;28;20042;-50
2023/04/06 06:18:51;;;;;;;24.00;17.40;;;4.00;99.90;;;;;;5009829;28;20041;-57
2023/04/06 06:21:37;;;;;;;26.83;17.13;;;4.10;99.90;;;;;;5011219;28;20033;-52
2023/04/06 06:24:23;;;;;;;21.83;15.75;;;4.10;99.90;;;;;;5011824;28;20058;-47
2023/04/06 06:27:08;;;;;;;18.77;15.65;;;4.10;99.90;;;;;;5012475;28;20542;-53
2023/04/06 06:29:55;;;;;;;23.05;15.43;;;4.10;99.90;;;;;;5009860;28;20042;-51
2023/04/06 06:32:41;;;;;;;20.70;16.23;;;4.20;99.90;;;;;;4996153;28;20021;-51
2023/04/06 06:35:27;;;;;;;25.90;19.85;;;4.30;99.90;;;;;;5010889;28;20113;-52
2023/04/06 06:38:13;;;;;;;23.25;15.65;;;4.40;99.90;;;;;;5008932;28;20030;-49
2023/04/06 06:40:59;;;;;;;22.38;15.60;;;4.50;99.90;;;;;;4997082;28;20033;-52
2023/04/06 06:43:45;;;;;;;21.83;15.45;;;4.60;99.90;;;;;;4997139;28;20510;-52
2023/04/06 06:46:31;;;;;;;43.08;24.23;;;4.70;99.90;;;;;;5007456;28;20486;-48
2023/04/06 06:49:17;;;;;;;20.75;15.05;;;4.80;99.90;;;;;;5009552;28;20054;-52
2023/04/06 06:52:03;;;;;;;19.33;15.25;;;5.00;99.60;;;;;;5010512;28;20025;-57
2023/04/06 06:54:49;;;;;;;22.63;16.35;;;5.10;99.00;;;;;;4995253;28;20030;-53
2023/04/06 06:57:35;;;;;;;18.30;14.45;;;5.20;98.70;;;;;;4982583;28;20030;-55
2023/04/06 07:00:21;;;;;;;24.35;14.25;;;5.30;98.30;;;;;;4996678;28;20033;-50
2023/04/06 07:03:07;;;;;;;15.38;13.55;;;5.40;97.90;;;;;;5008415;28;20455;-53
2023/04/06 07:05:53;;;;;;;17.90;12.32;;;5.50;97.40;;;;;;5009786;28;20120;-50
2023/04/06 07:08:39;;;;;;;16.88;13.27;;;5.50;96.20;;;;;;5009972;28;20044;-54
2023/04/06 07:11:26;;;;;;;34.15;22.60;;;5.60;96.50;;;;;;5010751;28;20351;-52
2023/04/06 07:14:12;;;;;;;17.10;12.30;;;5.60;96.00;;;;;;5009546;28;20030;-52
2023/04/06 07:16:57;;;;;;;15.75;11.98;;;5.60;95.00;;;;;;5009048;28;20048;-52
2023/04/06 07:19:43;;;;;;;14.07;12.57;;;5.50;94.90;;;;;;5010400;28;20065;-50
2023/04/06 07:22:30;;;;;;;16.02;12.50;;;5.60;94.90;;;;;;5010830;28;20038;-51
2023/04/06 07:25:16;;;;;;;17.27;12.60;;;5.60;94.90;;;;;;5009555;28;20702;-56
2023/04/06 07:28:03;;;;;;;18.42;12.40;;;5.50;94.80;;;;;;5009292;28;20026;-51
2023/04/06 07:30:50;;;;;;;19.45;12.10;;;5.70;94.50;;;;;;4996739;28;20101;-48
2023/04/06 07:33:36;;;;;;;17.13;11.85;;;5.70;94.60;;;;;;5009865;28;20110;-50
2023/04/06 07:36:22;;;;;;;18.73;11.57;;;5.90;94.50;;;;;;5009773;28;20398;-57
2023/04/06 07:39:08;;;;;;;15.57;11.50;;;5.90;94.50;;;;;;5009608;28;20446;-54
2023/04/06 07:41:54;;;;;;;14.38;10.93;;;6.10;94.20;;;;;;5008924;28;20026;-53
2023/04/06 07:44:40;;;;;;;14.20;11.45;;;6.20;93.90;;;;;;5011602;28;20097;-54
2023/04/06 07:47:26;;;;;;;18.63;12.60;;;6.20;93.80;;;;;;5010082;28;20045;-55
2023/04/06 07:50:12;;;;;;;15.85;12.95;;;6.10;93.80;;;;;;5011904;28;20037;-52
2023/04/06 07:52:59;;;;;;;16.77;12.52;;;6.30;94.10;;;;;;5000122;28;20104;-58
2023/04/06 07:55:45;;;;;;;20.45;12.82;;;6.30;94.30;;;;;;4999620;28;20487;-56
2023/04/06 07:58:31;;;;;;;27.58;14.13;;;6.40;94.00;;;;;;5012577;28;20509;-55
2023/04/06 08:01:17;;;;;;;13.90;11.40;;;6.50;93.70;;;;;;5014093;28;20092;-54
2023/04/06 08:04:03;;;;;;;17.38;11.50;;;6.50;93.00;;;;;;4986406;28;20030;-55
2023/04/06 08:06:49;;;;;;;15.10;10.57;;;6.50;92.30;;;;;;4998709;28;20026;-54
2023/04/06 08:09:35;;;;;;;13.23;10.68;;;6.60;92.10;;;;;;4998039;28;20383;-53
2023/04/06 08:12:21;;;;;;;14.68;11.73;;;6.70;91.90;;;;;;5013302;28;20589;-55
2023/04/06 08:15:08;;;;;;;12.70;11.05;;;6.80;91.80;;;;;;4996664;28;20049;-55
2023/04/06 08:17:56;;;;;;;19.55;11.05;;;6.90;91.60;;;;;;5013872;28;20057;-55
2023/04/06 08:20:42;;;;;;;12.32;10.13;;;7.10;91.10;;;;;;5011199;28;20150;-53
2023/04/06 08:23:29;;;;;;;12.68;10.65;;;7.10;90.80;;;;;;5012755;28;20513;-49
2023/04/06 08:26:15;;;;;;;15.15;11.43;;;7.20;90.90;;;;;;5014410;28;20525;-51
2023/04/06 08:29:01;;;;;;;14.68;10.85;;;7.30;90.90;;;;;;5010666;28;20506;-51
2023/04/06 08:31:47;;;;;;;14.55;11.82;;;7.40;90.80;;;;;;5015745;28;20494;-50
2023/04/06 08:34:33;;;;;;;15.70;12.20;;;7.40;90.60;;;;;;4997709;28;20494;-53
2023/04/06 08:37:19;;;;;;;13.60;10.10;;;7.40;90.80;;;;;;5010635;28;20128;-53
2023/04/06 08:40:06;;;;;;;26.80;12.98;;;7.60;90.90;;;;;;5010811;28;20034;-53
2023/04/06 08:42:56;;;;;;;36.10;15.05;;;7.70;90.90;;;;;;5013643;28;20030;-55
2023/04/06 08:45:43;;;;;;;17.95;11.93;;;7.90;90.70;;;;;;5008523;28;20030;-52
2023/04/06 08:48:29;;;;;;;26.75;13.85;;;7.90;90.60;;;;;;5013404;28;20042;-52
2023/04/06 08:51:15;;;;;;;27.25;12.02;;;8.00;90.20;;;;;;5012527;28;20049;-55
2023/04/06 08:54:01;;;;;;;62.50;15.13;;;8.20;90.00;;;;;;5012627;28;20033;-49
2023/04/06 08:56:48;;;;;;;16.55;10.25;;;8.30;89.20;;;;;;5012955;28;20026;-54
2023/04/06 08:59:35;;;;;;;16.88;10.77;;;8.40;89.20;;;;;;4993669;28;20025;-49
2023/04/06 09:02:21;;;;;;;15.15;10.50;;;8.40;88.30;;;;;;5012936;28;20037;-51
2023/04/06 09:05:09;;;;;;;15.80;10.63;;;8.40;86.90;;;;;;5012463;28;20497;-51
2023/04/06 09:07:56;;;;;;;15.43;10.98;;;8.30;86.70;;;;;;5011465;28;20026;-52
2023/04/06 09:10:42;;;;;;;25.77;11.38;;;8.30;86.10;;;;;;5011410;28;20096;-52
2023/04/06 09:13:27;;;;;;;20.00;11.10;;;8.40;85.60;;;;;;5014889;28;20026;-50
2023/04/06 09:16:16;;;;;;;12.20;9.80;;;8.60;85.10;;;;;;5011605;28;20073;-53
2023/04/06 09:19:05;;;;;;;13.60;10.07;;;8.60;84.90;;;;;;5012003;28;20045;-54
2023/04/06 09:22:06;;;;;;;16.48;10.73;;;8.60;85.20;;;;;;5011233;28;20038;-48
2023/04/06 09:24:53;;;;;;;12.77;9.98;;;8.80;85.10;;;;;;5011028;28;20101;-52
2023/04/06 09:27:39;;;;;;;15.43;10.80;;;9.00;85.00;;;;;;5011358;28;20080;-52
2023/04/06 09:30:26;;;;;;;15.93;11.30;;;9.10;85.00;;;;;;5012275;28;20030;-48
2023/04/06 09:33:12;;;;;;;14.55;9.70;;;9.20;84.50;;;;;;5011261;28;20126;-52
2023/04/06 09:35:58;;;;;;;16.83;12.68;;;9.30;84.10;;;;;;5011158;28;20026;-56
2023/04/06 09:39:04;;;;;;;16.23;11.38;;;9.40;83.30;;;;;;5005298;28;20109;-53
2023/04/06 09:41:51;;;;;;;;;;;9.70;82.50;;;;;;5010539;28;20022;-52
2023/04/06 09:44:37;;;;;;;19.88;9.82;;;9.60;79.70;;;;;;5011565;28;19905;-51
2023/04/06 09:47:23;;;;;;;12.48;10.05;;;9.50;79.80;;;;;;5011362;28;20038;-53
2023/04/06 09:50:14;;;;;;;13.07;9.50;;;9.70;79.30;;;;;;5010154;28;20439;-49
2023/04/06 09:53:02;;;;;;;14.95;10.68;;;9.80;79.10;;;;;;5011766;28;20022;-51
2023/04/06 09:55:53;;;;;;;12.15;9.45;;;9.70;80.00;;;;;;5011185;28;20072;-53
2023/04/06 09:58:43;;;;;;;15.50;10.45;;;9.60;79.40;;;;;;5010928;28;20462;-52
2023/04/06 10:01:32;;;;;;;13.23;9.98;;;9.60;78.30;;;;;;5010899;28;20062;-54
2023/04/06 10:04:50;;;;;;;13.77;10.13;;;9.60;78.30;;;;;;4993775;28;20030;-51
2023/04/06 10:07:37;;;;;;;13.27;9.98;;;9.60;78.40;;;;;;4991741;28;20031;-49
2023/04/06 10:10:23;;;;;;;16.20;11.77;;;9.70;78.30;;;;;;4992832;28;20164;-49
2023/04/06 10:13:11;;;;;;;14.45;11.07;;;9.50;77.60;;;;;;4992163;28;20029;-47
2023/04/06 10:16:00;;;;;;;13.38;9.98;;;9.60;78.00;;;;;;4991839;28;20023;-47
2023/04/06 10:18:56;;;;;;;15.45;9.75;;;9.70;78.00;;;;;;4993418;28;20038;-51
2023/04/06 10:21:46;;;;;;;14.43;10.15;;;9.90;77.90;;;;;;4992709;28;20061;-54
2023/04/06 10:24:32;;;;;;;13.75;9.48;;;10.20;77.50;;;;;;4978173;28;20065;-49
2023/04/06 10:27:28;;;;;;;12.65;9.27;;;10.20;75.60;;;;;;4993403;28;20034;-48
2023/04/06 10:30:16;;;;;;;10.88;8.63;;;10.30;74.10;;;;;;5006329;28;20042;-51
2023/04/06 10:33:16;;;;;;;13.85;8.55;;;10.10;71.10;;;;;;5005030;28;20498;-50
2023/04/06 10:36:22;;;;;;;13.40;8.85;;;10.00;72.70;;;;;;5009447;28;20558;-53
2023/04/06 10:39:08;;;;;;;11.75;9.02;;;9.60;72.90;;;;;;5012276;28;20025;-55
2023/04/06 10:41:54;;;;;;;11.98;8.60;;;9.60;70.60;;;;;;5012260;28;20138;-53
2023/04/06 10:44:46;;;;;;;12.55;9.02;;;9.70;70.30;;;;;;5010508;28;20034;-51
2023/04/06 10:47:41;;;;;;;11.27;8.75;;;9.80;70.20;;;;;;5006969;28;20042;-49
2023/04/06 10:50:29;;;;;;;10.88;8.27;;;10.10;70.40;;;;;;5010766;28;20513;-48
2023/04/06 10:53:28;;;;;;;10.82;8.57;;;10.20;70.80;;;;;;4995441;28;20038;-51
2023/04/06 10:56:21;;;;;;;10.40;8.55;;;10.20;71.40;;;;;;4992369;28;20033;-51
2023/04/06 10:59:07;;;;;;;12.63;8.68;;;10.30;71.20;;;;;;5007180;28;20104;-53
2023/04/06 11:01:55;;;;;;;12.88;8.02;;;10.40;71.00;;;;;;5010398;28;20438;-54
2023/04/06 11:04:42;;;;;;;12.00;8.02;;;10.40;70.90;;;;;;5010911;28;20036;-55
2023/04/06 11:07:29;;;;;;;12.23;8.95;;;10.60;69.30;;;;;;5009784;28;20037;-50
2023/04/06 11:10:22;;;;;;;10.55;7.90;;;10.30;69.40;;;;;;4995637;28;20022;-48
2023/04/06 11:13:08;;;;;;;11.57;8.75;;;10.40;69.20;;;;;;5011228;28;20387;-52
2023/04/06 11:15:54;;;;;;;10.45;8.43;;;10.40;69.40;;;;;;5011602;28;20018;-50
2023/04/06 11:18:57;;;;;;;12.20;8.23;;;10.30;70.00;;;;;;5010977;28;20026;-52
2023/04/06 11:21:48;;;;;;;11.15;8.30;;;10.40;69.40;;;;;;5011424;28;20073;-51
2023/04/06 11:24:34;;;;;;;12.50;8.10;;;10.40;68.80;;;;;;5015724;28;20109;-48
2023/04/06 11:27:20;;;;;;;11.88;8.38;;;10.40;69.40;;;;;;5015107;28;20022;-50
2023/04/06 11:30:07;;;;;;;11.27;8.57;;;10.50;69.40;;;;;;5015176;28;20410;-51
2023/04/06 11:33:02;;;;;;;10.73;7.63;;;10.60;68.90;;;;;;4999829;28;20030;-49
2023/04/06 11:35:48;;;;;;;10.18;7.60;;;10.50;69.20;;;;;;5015959;28;20018;-51
2023/04/06 11:38:39;;;;;;;9.88;7.72;;;10.50;69.40;;;;;;5015360;28;20060;-51
2023/04/06 11:41:27;;;;;;;10.57;7.28;;;10.50;67.70;;;;;;5015493;28;20037;-50
2023/04/06 11:44:13;;;;;;;12.88;7.90;;;10.60;67.70;;;;;;5015329;28;20081;-48
2023/04/06 11:47:01;;;;;;;9.43;8.25;;;10.70;67.60;;;;;;5014769;28;20402;-50
2023/04/06 11:49:50;;;;;;;12.82;8.02;;;10.70;68.30;;;;;;5015070;28;20026;-50
2023/04/06 11:52:36;;;;;;;9.98;7.70;;;10.80;68.30;;;;;;5002102;28;20026;-47
2023/04/06 11:55:22;;;;;;;9.20;7.65;;;10.80;67.80;;;;;;5012795;28;20037;-50
2023/04/06 11:58:08;;;;;;;10.52;8.10;;;11.00;70.60;;;;;;4994722;28;20031;-47
2023/04/06 12:01:03;;;;;;;18.13;7.65;;;11.10;67.80;;;;;;5008083;28;20026;-48
2023/04/06 12:03:50;;;;;;;9.50;7.68;;;11.50;68.40;;;;;;5015094;28;20025;-48
2023/04/06 12:06:36;;;;;;;8.98;7.63;;;11.60;66.50;;;;;;5015872;28;20038;-50
2023/04/06 12:09:22;;;;;;;8.35;7.05;;;11.50;65.70;;;;;;5016350;28;20675;-50
2023/04/06 12:12:08;;;;;;;8.10;7.30;;;11.70;67.80;;;;;;5014817;28;20026;-51
2023/04/06 12:14:55;;;;;;;12.63;9.98;;;11.70;65.70;;;;;;5000872;28;20060;-49
2023/04/06 12:17:41;;;;;;;8.30;7.47;;;11.90;67.50;;;;;;5013604;28;20398;-48
2023/04/06 12:20:27;;;;;;;11.00;8.48;;;11.90;66.70;;;;;;5000726;28;20026;-51
2023/04/06 12:23:13;;;;;;;9.48;7.82;;;12.00;65.70;;;;;;5015002;28;20160;-48
2023/04/06 12:25:59;;;;;;;8.32;7.47;;;12.10;65.30;;;;;;4996158;28;20034;-53
2023/04/06 12:28:45;;;;;;;8.75;7.65;;;12.00;65.50;;;;;;4995283;28;20035;-49
2023/04/06 12:31:32;;;;;;;10.90;7.55;;;11.80;66.30;;;;;;4994784;28;20045;-49
2023/04/06 12:34:17;;;;;;;12.05;7.78;;;11.70;66.20;;;;;;4994042;28;20569;-52
2023/04/06 12:37:03;;;;;;;11.93;7.78;;;11.70;66.70;;;;;;4995008;28;20038;-48
2023/04/06 12:39:50;;;;;;;11.55;8.32;;;11.70;66.70;;;;;;4994058;28;20034;-50
2023/04/06 12:42:36;;;;;;;11.20;9.13;;;11.90;67.10;;;;;;4995448;28;20026;-50
2023/04/06 12:45:22;;;;;;;10.82;7.97;;;12.00;67.30;;;;;;4993935;28;20034;-48
2023/04/06 12:48:08;;;;;;;11.68;8.63;;;12.50;67.50;;;;;;4993538;28;20026;-50
2023/04/06 12:51:01;;;;;;;9.70;8.25;;;12.60;66.10;;;;;;4994434;28;20499;-51
2023/04/06 12:53:48;;;;;;;11.93;8.20;;;12.60;65.50;;;;;;4994158;28;20033;-51
2023/04/06 12:56:34;;;;;;;11.30;7.72;;;12.60;65.70;;;;;;5013100;28;20026;-50
2023/04/06 12:59:20;;;;;;;13.00;7.75;;;12.80;64.90;;;;;;5009645;28;20070;-52
2023/04/06 13:02:06;;;;;;;9.73;7.93;;;12.90;65.30;;;;;;5017784;28;20034;-49
2023/04/06 13:04:52;;;;;;;23.10;9.23;;;12.90;64.80;;;;;;5007440;28;20573;-48
2023/04/06 13:07:38;;;;;;;11.07;9.23;;;12.70;64.70;;;;;;5011783;28;20060;-50
2023/04/06 13:10:24;;;;;;;17.25;9.88;;;12.40;65.20;;;;;;5011860;28;20034;-50
2023/04/06 13:13:10;;;;;;;11.85;9.20;;;12.60;65.00;;;;;;5013066;28;20074;-50
2023/04/06 13:16:02;;;;;;;10.88;8.02;;;12.70;64.40;;;;;;4996978;28;20494;-51
2023/04/06 13:18:48;;;;;;;10.13;8.00;;;12.90;64.50;;;;;;5015005;28;20491;-54
2023/04/06 13:21:34;;;;;;;30.17;9.85;;;13.20;64.90;;;;;;5020434;28;20065;-49
2023/04/06 13:24:21;;;;;;;11.32;7.78;;;13.40;63.80;;;;;;5021322;28;20164;-47
2023/04/06 13:27:07;;;;;;;8.55;7.45;;;13.40;63.30;;;;;;5016963;28;20034;-50
2023/04/06 13:29:55;;;;;;;9.90;7.93;;;13.00;63.40;;;;;;5017116;28;20041;-50
2023/04/06 13:32:42;;;;;;;9.18;7.45;;;13.20;62.90;;;;;;5020715;28;20038;-49
2023/04/06 13:35:28;;;;;;;10.00;8.30;;;13.40;63.10;;;;;;5012301;28;20085;-50
2023/04/06 13:38:14;;;;;;;12.48;8.45;;;13.30;62.80;;;;;;5027015;28;20034;-51
2023/04/06 13:41:01;;;;;;;42.65;23.65;;;13.40;63.00;;;;;;5026551;28;20474;-48
2023/04/06 13:43:47;;;;;;;134.75;67.88;;;13.20;64.50;;;;;;5022307;28;20029;-50
2023/04/06 13:46:33;;;;;;;62.53;34.88;;;13.60;65.70;;;;;;5016769;28;20025;-53
2023/04/06 13:49:19;;;;;;;56.58;27.27;;;14.10;65.70;;;;;;5027959;28;20018;-53
2023/04/06 13:52:05;;;;;;;66.53;33.90;;;14.50;64.60;;;;;;5002552;28;20195;-49
2023/04/06 13:54:52;;;;;;;26.15;16.38;;;14.80;64.10;;;;;;5020785;28;20129;-47
2023/04/06 13:57:38;;;;;;;22.70;13.80;;;14.80;63.50;;;;;;5018407;28;20037;-53
2023/04/06 14:00:24;;;;;;;14.57;9.68;;;15.10;63.30;;;;;;5013209;28;20105;-53
2023/04/06 14:03:10;;;;;;;13.68;9.82;;;15.10;62.20;;;;;;5014826;28;20142;-52
2023/04/06 14:05:56;;;;;;;14.60;11.10;;;15.10;63.10;;;;;;5016553;28;20061;-52
2023/04/06 14:08:42;;;;;;;11.07;8.38;;;15.40;64.50;;;;;;5023266;28;20068;-48
2023/04/06 14:11:28;;;;;;;10.48;8.27;;;15.60;63.40;;;;;;5011766;28;20029;-50
2023/04/06 14:14:14;;;;;;;10.95;8.02;;;15.60;60.20;;;;;;5000980;28;20032;-52
2023/04/06 14:17:00;;;;;;;11.40;8.27;;;15.80;59.90;;;;;;5017429;28;20034;-52
2023/04/06 14:19:46;;;;;;;12.40;9.90;;;16.00;62.40;;;;;;4985381;28;20034;-48